Time;durP1;ratioP1;P1;durP2;ratioP2;P2;SDS_P1;SDS_P2;PMS_P1;PMS_P2;Temp;Humidity;BMP_temperature;BMP_pressure;BME280_temperature;BME280_humidity;BME280_pressure;Samples;Min_cycle;Max_cycle;Signal;HPM_P1;HPM_P2
2022/08/17 00:01:24;;;;;;;27.55;24.85;;;;;;;22.67;63.26;100698.78;3585065;40;20059;-62
2022/08/17 00:03:52;;;;;;;28.40;25.60;;;;;;;22.67;63.74;100698.78;3589322;39;20054;-63
2022/08/17 00:06:24;;;;;;;27.58;24.83;;;;;;;22.67;63.93;100696.06;3585051;40;20055;-63
2022/08/17 00:08:55;;;;;;;28.30;25.58;;;;;;;22.68;63.45;100703.25;3584893;40;20048;-62
2022/08/17 00:11:37;;;;;;;28.60;25.58;;;;;;;22.72;63.34;100696.38;3584713;40;20071;-62
2022/08/17 00:14:12;;;;;;;28.63;25.52;;;;;;;22.76;63.38;100694.13;3586914;40;20161;-63
2022/08/17 00:16:45;;;;;;;28.80;25.95;;;;;;;22.77;63.47;100691.25;3584926;40;20048;-63
2022/08/17 00:19:16;;;;;;;30.13;27.27;;;;;;;22.79;63.33;100680.09;3586410;40;20059;-63
2022/08/17 00:21:46;;;;;;;29.80;27.00;;;;;;;22.77;63.12;100669.31;3584373;40;20063;-63
2022/08/17 00:24:14;;;;;;;30.23;27.02;;;;;;;22.74;63.20;100675.16;3587715;40;20048;-63
2022/08/17 00:26:40;;;;;;;32.03;29.02;;;;;;;22.69;63.42;100667.44;3584400;40;20395;-63
2022/08/17 00:29:06;;;;;;;29.88;27.08;;;;;;;22.69;63.39;100659.22;3585305;40;20053;-63
2022/08/17 00:31:34;;;;;;;30.48;27.55;;;;;;;22.75;63.15;100671.38;3585074;40;20150;-63
2022/08/17 00:34:01;;;;;;;31.45;28.17;;;;;;;22.74;63.83;100672.41;3585834;40;20046;-63
2022/08/17 00:36:27;;;;;;;31.27;28.05;;;;;;;22.73;63.82;100669.84;3584886;40;20287;-63
2022/08/17 00:38:53;;;;;;;32.42;29.42;;;;;;;22.71;63.73;100659.06;3587734;40;20443;-63
2022/08/17 00:41:23;;;;;;;31.50;28.42;;;;;;;22.72;63.78;100658.03;3584169;40;20059;-63
2022/08/17 00:43:58;;;;;;;32.70;29.63;;;;;;;22.75;63.70;100651.34;3584029;40;20063;-63
2022/08/17 00:46:34;;;;;;;33.03;29.73;;;;;;;22.73;64.09;100661.63;3588159;40;20052;-63
2022/08/17 00:49:01;;;;;;;33.03;29.67;;;;;;;22.70;64.14;100662.81;3584531;40;20372;-63
2022/08/17 00:51:41;;;;;;;32.00;28.90;;;;;;;22.72;64.14;100658.03;3584739;40;20091;-63
2022/08/17 00:54:36;;;;;;;33.13;29.83;;;;;;;22.67;64.41;100663.16;3588178;40;20044;-63
2022/08/17 00:57:16;;;;;;;33.13;29.90;;;;;;;22.64;64.68;100666.25;3584891;39;20110;-63
2022/08/17 00:59:48;;;;;;;32.95;29.92;;;;;;;22.61;64.90;100663.88;3584392;40;20088;-64
2022/08/17 01:02:18;;;;;;;32.40;29.17;;;;;;;22.43;65.20;100634.00;3584208;40;20059;-63
2022/08/17 01:04:49;;;;;;;31.73;28.73;;;;;;;22.29;65.26;100610.91;3585403;40;20074;-63
2022/08/17 01:07:20;;;;;;;31.02;28.08;;;;;;;22.58;64.96;100659.63;3585377;39;20054;-63
2022/08/17 01:09:47;;;;;;;31.13;28.02;;;;;;;22.59;65.29;100657.75;3584173;40;20048;-63
2022/08/17 01:12:14;;;;;;;32.58;29.50;;;;;;;22.50;65.27;100642.38;3584781;40;20402;-63
2022/08/17 01:14:40;;;;;;;33.17;29.83;;;;;;;22.58;65.37;100648.69;3583505;39;20068;-63
2022/08/17 01:17:07;;;;;;;32.05;29.02;;;;;;;22.57;65.69;100651.56;3587225;39;20068;-62
2022/08/17 01:19:38;;;;;;;32.63;29.50;;;;;;;22.61;65.72;100648.31;3587368;40;20413;-63
2022/08/17 01:22:10;;;;;;;31.75;28.75;;;;;;;22.64;65.16;100642.44;3584380;40;20062;-63
2022/08/17 01:24:44;;;;;;;32.28;29.27;;;;;;;22.64;64.96;100641.59;3584844;40;20055;-63
2022/08/17 01:27:13;;;;;;;31.65;28.63;;;;;;;22.64;64.92;100634.22;3584414;40;20048;-63
2022/08/17 01:29:45;;;;;;;32.40;29.00;;;;;;;22.67;65.23;100635.78;3584006;40;20063;-62
2022/08/17 01:32:11;;;;;;;32.80;29.70;;;;;;;22.65;65.04;100637.84;3590216;39;20067;-63
2022/08/17 01:34:38;;;;;;;33.20;29.95;;;;;;;22.65;65.38;100632.38;3587379;39;20269;-63
2022/08/17 01:37:04;;;;;;;32.80;29.67;;;;;;;22.65;65.43;100632.38;3584827;40;20316;-63
2022/08/17 01:39:43;;;;;;;32.00;28.70;;;;;;;22.65;65.04;100624.16;3586130;39;20060;-63
2022/08/17 01:42:25;;;;;;;32.30;29.33;;;;;;;22.61;65.19;100625.53;3586815;40;20081;-63
2022/08/17 01:44:57;;;;;;;30.88;27.88;;;;;;;22.59;65.59;100628.44;3584689;40;20051;-63
2022/08/17 01:47:23;;;;;;;31.58;28.50;;;;;;;22.56;65.44;100627.97;3585030;40;20290;-63
2022/08/17 01:49:49;;;;;;;32.00;28.77;;;;;;;22.54;65.45;100630.84;3588039;40;20047;-63
2022/08/17 01:52:16;;;;;;;30.58;27.40;;;;;;;22.56;65.47;100623.31;3588103;40;20083;-63
2022/08/17 01:54:46;;;;;;;32.00;28.77;;;;;;;22.56;65.08;100623.31;3586293;40;20052;-63
2022/08/17 01:57:12;;;;;;;30.20;27.35;;;;;;;22.54;65.64;100617.16;3585795;40;20044;-63
2022/08/17 01:59:38;;;;;;;30.25;27.35;;;;;;;22.51;65.63;100619.41;3587245;40;20117;-63
2022/08/17 02:02:06;;;;;;;30.15;27.25;;;;;;;22.52;65.82;100618.38;3588303;40;20290;-63
2022/08/17 02:04:32;;;;;;;30.35;27.33;;;;;;;22.33;65.83;100601.34;3587351;39;20099;-63
2022/08/17 02:06:58;;;;;;;30.15;27.02;;;;;;;22.20;65.88;100579.13;3588227;40;20088;-63
2022/08/17 02:09:27;;;;;;;29.77;26.95;;;;;;;22.45;65.69;100613.63;3583713;40;20058;-63
2022/08/17 02:11:55;;;;;;;32.40;28.95;;;;;;;22.41;65.92;100616.88;3588893;40;20052;-63
2022/08/17 02:14:23;;;;;;;30.77;27.98;;;;;;;22.40;65.71;100613.28;3588645;39;20470;-63
2022/08/17 02:16:49;;;;;;;32.28;28.98;;;;;;;22.38;65.96;100617.22;3588970;40;20283;-63
2022/08/17 02:19:16;;;;;;;30.17;27.33;;;;;;;22.38;66.34;100620.81;3587063;39;20068;-63
2022/08/17 02:21:46;;;;;;;36.22;32.72;;;;;;;22.36;65.75;100609.22;3586199;40;20048;-63
2022/08/17 02:24:27;;;;;;;32.60;29.50;;;;;;;22.13;65.73;100578.09;3589852;39;20048;-63
2022/08/17 02:26:52;;;;;;;31.13;27.92;;;;;;;22.30;66.22;100609.91;3586046;40;20070;-64
2022/08/17 02:29:18;;;;;;;31.55;28.35;;;;;;;22.29;66.12;100610.06;3585649;40;20047;-63
2022/08/17 02:31:44;;;;;;;30.88;27.75;;;;;;;22.27;66.71;100617.63;3588124;40;20382;-63
2022/08/17 02:34:11;;;;;;;31.30;28.05;;;;;;;22.24;65.85;100613.34;3587819;40;20244;-63
2022/08/17 02:36:37;;;;;;;31.17;28.02;;;;;;;22.20;66.54;100601.03;3589294;40;20109;-63
2022/08/17 02:39:06;;;;;;;30.33;27.38;;;;;;;22.20;66.23;100603.75;3588100;39;20327;-63
2022/08/17 02:41:32;;;;;;;30.95;28.08;;;;;;;22.18;66.49;100597.63;3586307;40;20062;-63
2022/08/17 02:43:58;;;;;;;30.50;27.67;;;;;;;22.10;66.65;100598.44;3589570;40;20055;-63
2022/08/17 02:46:24;;;;;;;31.90;29.00;;;;;;;22.09;66.57;100593.16;3585665;39;20052;-63
2022/08/17 02:48:50;;;;;;;31.20;28.05;;;;;;;22.03;66.52;100597.44;3584680;40;20052;-64
2022/08/17 02:51:17;;;;;;;33.53;30.23;;;;;;;21.98;66.99;100600.72;3585116;39;20298;-63
2022/08/17 02:53:43;;;;;;;32.58;29.42;;;;;;;21.95;67.68;100598.34;3584162;40;20059;-63
2022/08/17 02:56:08;;;;;;;33.22;29.83;;;;;;;21.91;67.43;100596.97;3589495;39;20055;-63
2022/08/17 02:58:34;;;;;;;33.65;30.38;;;;;;;21.88;68.05;100597.31;3587895;40;20501;-63
2022/08/17 03:01:00;;;;;;;36.80;33.22;;;;;;;21.83;67.88;100587.94;3589156;40;20055;-63
2022/08/17 03:03:25;;;;;;;38.25;34.63;;;;;;;21.80;68.46;100591.88;3585150;39;20083;-63
2022/08/17 03:05:52;;;;;;;40.03;36.25;;;;;;;21.76;67.95;100591.38;3587226;40;20342;-63
2022/08/17 03:08:19;;;;;;;38.70;35.08;;;;;;;21.73;68.49;100593.59;3584626;39;20056;-63
2022/08/17 03:10:45;;;;;;;39.75;36.03;;;;;;;21.51;69.02;100552.25;3583536;40;20126;-63
2022/08/17 03:13:13;;;;;;;39.05;35.40;;;;;;;21.68;68.98;100576.84;3587088;40;20088;-63
2022/08/17 03:15:43;;;;;;;38.28;34.83;;;;;;;21.67;69.26;100578.72;3585269;40;20052;-63
2022/08/17 03:18:12;;;;;;;37.88;34.28;;;;;;;21.67;69.21;100584.19;3584067;40;20056;-63
2022/08/17 03:20:39;;;;;;;40.47;36.55;;;;;;;21.68;68.98;100579.56;3584610;40;20064;-63
2022/08/17 03:23:05;;;;;;;39.60;35.92;;;;;;;21.69;69.16;100586.75;3583732;40;20133;-63
2022/08/17 03:25:37;;;;;;;38.47;34.88;;;;;;;21.71;69.04;100592.91;3583619;40;20060;-63
2022/08/17 03:28:05;;;;;;;38.90;35.17;;;;;;;21.69;69.29;100581.25;3584667;40;20118;-63
2022/08/17 03:30:32;;;;;;;40.17;36.35;;;;;;;21.64;68.93;100581.81;3587523;40;20072;-63
2022/08/17 03:33:02;;;;;;;39.63;35.95;;;;;;;21.68;69.20;100590.50;3588067;40;20084;-63
2022/08/17 03:35:33;;;;;;;39.90;36.10;;;;;;;21.66;69.29;100585.22;3586080;40;20480;-63
2022/08/17 03:38:00;;;;;;;39.10;35.38;;;;;;;21.52;68.94;100578.56;3589175;40;20059;-63
2022/08/17 03:40:27;;;;;;;42.33;38.22;;;;;;;21.60;69.47;100590.50;3586554;39;20863;-64
2022/08/17 03:42:53;;;;;;;40.55;36.58;;;;;;;21.60;69.41;100593.25;3585480;39;20056;-64
2022/08/17 03:56:41;;;;;;;39.15;35.50;;;;;;;21.52;69.67;100592.22;3587545;40;20054;-64
2022/08/17 03:59:12;;;;;;;40.03;36.13;;;;;;;21.34;69.43;100558.69;3586790;40;20087;-64
2022/08/17 04:01:39;;;;;;;39.50;35.90;;;;;;;21.61;69.52;100609.50;3586789;40;20052;-64
2022/08/17 04:04:06;;;;;;;39.38;35.47;;;;;;;21.64;69.01;100609.16;3585848;40;20055;-64
2022/08/17 04:06:31;;;;;;;39.50;35.63;;;;;;;21.64;69.25;100624.72;3587319;40;20060;-64
2022/08/17 04:08:57;;;;;;;38.05;34.45;;;;;;;21.62;69.79;100618.56;3587713;40;20051;-64
2022/08/17 04:11:23;;;;;;;39.17;35.28;;;;;;;21.62;69.63;100634.97;3587048;40;20059;-64
2022/08/17 04:13:48;;;;;;;37.85;34.22;;;;;;;21.65;69.64;100640.94;3588299;40;20058;-63
2022/08/17 04:16:14;;;;;;;37.25;33.75;;;;;;;21.65;69.41;100662.84;3583099;40;20048;-64
2022/08/17 04:18:39;;;;;;;38.25;34.78;;;;;;;21.63;70.04;100661.28;3586350;40;20052;-63
2022/08/17 04:21:08;;;;;;;41.35;37.40;;;;;;;21.57;70.58;100660.13;3582936;40;20048;-63
2022/08/17 04:23:35;;;;;;;42.67;38.35;;;;;;;21.53;71.27;100653.25;3583482;40;20126;-63
2022/08/17 04:26:01;;;;;;;42.53;38.28;;;;;;;21.47;71.78;100654.81;3583578;40;20048;-64
2022/08/17 04:28:28;;;;;;;42.15;38.03;;;;;;;21.47;71.89;100660.28;3583505;40;20067;-64
2022/08/17 04:30:54;;;;;;;41.22;37.28;;;;;;;21.47;72.08;100660.28;3587484;40;20078;-63
2022/08/17 04:33:26;;;;;;;44.75;40.17;;;;;;;21.49;71.84;100669.16;3583594;39;20319;-63
2022/08/17 04:35:58;;;;;;;41.00;37.20;;;;;;;21.52;72.18;100696.16;3583637;40;20374;-64
2022/08/17 04:38:29;;;;;;;40.25;36.30;;;;;;;21.39;71.67;100684.88;3587454;40;20085;-63
2022/08/17 04:43:44;;;;;;;39.63;35.60;;;;;;;21.58;71.75;100699.25;3585007;40;20051;-63
2022/08/17 04:46:16;;;;;;;38.90;35.10;;;;;;;21.45;72.02;100689.69;3585892;40;20092;-65
2022/08/17 04:48:47;;;;;;;39.33;35.63;;;;;;;21.61;71.94;100690.72;3586399;40;20048;-64
2022/08/17 04:51:28;;;;;;;39.55;35.63;;;;;;;21.56;72.18;100700.28;3584904;40;20258;-63
2022/08/17 04:54:05;;;;;;;39.30;35.70;;;;;;;21.58;72.00;100688.31;3587044;40;20048;-63
2022/08/17 04:56:32;;;;;;;38.47;34.78;;;;;;;21.55;72.62;100708.66;3588831;40;20114;-63
2022/08/17 04:59:09;;;;;;;38.65;35.00;;;;;;;21.60;72.43;100691.72;3589776;40;20055;-65
2022/08/17 05:01:39;;;;;;;39.70;35.80;;;;;;;21.58;72.25;100688.31;3588186;40;20054;-65
2022/08/17 05:04:11;;;;;;;40.22;36.33;;;;;;;21.61;72.28;100679.78;3587844;40;20122;-63
2022/08/17 05:06:36;;;;;;;38.65;35.03;;;;;;;21.63;72.85;100691.38;3588248;40;20100;-63
2022/08/17 05:09:04;;;;;;;39.97;36.15;;;;;;;21.66;72.20;100671.91;3589816;40;20058;-63
2022/08/17 05:11:30;;;;;;;37.72;34.03;;;;;;;21.65;72.60;100670.19;3587197;40;20059;-63
2022/08/17 05:13:58;;;;;;;36.78;33.28;;;;;;;21.68;72.66;100672.59;3589358;40;20044;-64
2022/08/17 05:16:27;;;;;;;37.67;34.17;;;;;;;21.68;72.45;100672.59;3584450;40;20060;-63
2022/08/17 05:18:53;;;;;;;36.42;33.03;;;;;;;21.70;72.50;100676.03;3586903;40;20388;-64
2022/08/17 05:21:21;;;;;;;38.00;34.35;;;;;;;21.73;72.82;100684.75;3588684;39;20060;-64
2022/08/17 05:23:46;;;;;;;35.58;32.35;;;;;;;21.78;72.36;100684.22;3588624;40;20048;-63
2022/08/17 05:26:18;;;;;;;35.85;32.17;;;;;;;21.74;72.32;100671.91;3589344;39;20047;-64
2022/08/17 05:28:44;;;;;;;35.58;32.08;;;;;;;21.84;72.44;100671.72;3586230;40;20106;-64
2022/08/17 05:31:11;;;;;;;34.90;31.55;;;;;;;21.85;72.51;100670.69;3587293;39;20403;-64
2022/08/17 05:33:41;;;;;;;35.45;32.00;;;;;;;21.86;72.35;100670.53;3584582;40;20125;-64
2022/08/17 05:36:13;;;;;;;34.95;31.30;;;;;;;21.94;71.96;100667.78;3587047;39;20052;-64
2022/08/17 05:38:38;;;;;;;34.33;31.10;;;;;;;21.94;72.50;100670.50;3586061;40;20125;-63
2022/08/17 05:41:07;;;;;;;33.83;30.58;;;;;;;22.00;72.05;100663.50;3584596;40;20064;-64
2022/08/17 05:43:37;;;;;;;34.58;31.08;;;;;;;22.07;71.44;100675.47;3587479;40;20076;-64
2022/08/17 05:46:27;;;;;;;31.77;28.80;;;;;;;22.09;71.77;100669.81;3590353;40;20048;-64
2022/08/17 05:49:03;;;;;;;32.92;29.70;;;;;;;22.15;71.27;100674.59;3587655;40;20100;-64
2022/08/17 05:51:56;;;;;;;32.40;29.05;;;;;;;22.21;70.80;100676.69;3587404;40;20450;-65
2022/08/17 05:54:49;;;;;;;31.63;28.67;;;;;;;22.25;70.61;100672.56;3583972;40;20044;-63
2022/08/17 05:57:42;;;;;;;31.10;28.10;;;;;;;22.31;70.20;100682.81;3587725;40;20132;-64
2022/08/17 06:00:35;;;;;;;30.65;27.55;;;;;;;22.33;70.09;100677.16;3583943;40;20121;-63
2022/08/17 06:03:29;;;;;;;28.50;25.83;;;;;;;22.44;69.19;100682.25;3584336;40;20155;-63
2022/08/17 06:06:20;;;;;;;28.13;25.42;;;;;;;22.53;69.03;100683.94;3584200;40;20048;-63
2022/08/17 06:09:19;;;;;;;26.83;24.23;;;;;;;22.57;68.93;100684.44;3588147;40;20063;-63
2022/08/17 06:12:32;;;;;;;25.10;22.70;;;;;;;22.66;67.95;100684.25;3583660;40;20056;-63
2022/08/17 06:14:58;;;;;;;23.65;21.40;;;;;;;22.73;67.99;100687.13;3587763;39;20088;-63
2022/08/17 06:17:27;;;;;;;23.92;21.65;;;;;;;22.79;67.75;100682.81;3588382;39;20410;-63
2022/08/17 06:19:59;;;;;;;24.20;21.80;;;;;;;22.84;67.27;100685.91;3587120;39;20051;-63
2022/08/17 06:22:55;;;;;;;24.45;22.15;;;;;;;22.87;67.30;100694.63;3585735;39;20369;-63
2022/08/17 06:25:42;;;;;;;25.63;23.20;;;;;;;22.87;67.26;100702.84;3585370;39;20060;-63
2022/08/17 06:28:14;;;;;;;24.90;22.48;;;;;;;22.88;67.40;100703.69;3586172;40;20071;-63
2022/08/17 06:30:56;;;;;;;23.63;21.27;;;;;;;22.86;67.11;100712.06;3586805;40;20103;-63
2022/08/17 06:33:31;;;;;;;24.63;22.02;;;;;;;22.87;67.19;100712.97;3583654;40;20048;-63
2022/08/17 06:36:14;;;;;;;25.17;22.58;;;;;;;22.84;66.90;100716.91;3586446;40;20379;-63
2022/08/17 06:39:03;;;;;;;23.52;21.13;;;;;;;22.22;67.54;100626.34;3584593;40;20053;-63
2022/08/17 06:41:53;;;;;;;24.02;21.65;;;;;;;22.80;66.98;100717.41;3585867;40;20071;-63
2022/08/17 06:44:35;;;;;;;23.45;21.13;;;;;;;22.79;67.19;100719.31;3588293;40;20055;-63
2022/08/17 06:47:35;;;;;;;22.27;19.95;;;;;;;22.80;67.06;100723.75;3589024;40;20309;-64
2022/08/17 06:50:34;;;;;;;21.20;19.02;;;;;;;22.74;66.59;100724.47;3587403;40;20052;-64
2022/08/17 06:53:23;;;;;;;21.50;19.30;;;;;;;22.70;67.02;100726.69;3589092;40;20056;-64
2022/08/17 06:56:09;;;;;;;19.35;17.35;;;;;;;22.64;67.65;100737.50;3584010;40;20056;-64
2022/08/17 06:58:37;;;;;;;20.92;19.02;;;;;;;22.61;67.66;100738.75;3585336;40;20060;-64
2022/08/17 07:01:22;;;;;;;21.88;19.23;;;;;;;22.65;67.16;100731.03;3587262;40;20050;-64
2022/08/17 07:04:28;;;;;;;20.30;18.30;;;;;;;22.69;67.28;100732.38;3585684;40;20282;-64
2022/08/17 07:10:00;;;;;;;18.20;16.58;;;;;;;22.59;67.07;100732.56;3584821;40;20104;-64
2022/08/17 07:12:37;;;;;;;19.25;17.30;;;;;;;22.71;66.72;100744.03;3586114;39;20070;-64
2022/08/17 07:15:38;;;;;;;19.08;17.13;;;;;;;22.74;67.31;100745.53;3587392;39;20117;-64
2022/08/17 07:18:04;;;;;;;19.33;17.50;;;;;;;22.78;66.32;100742.28;3585591;40;20044;-64
2022/08/17 07:20:30;;;;;;;18.40;16.45;;;;;;;22.83;66.76;100745.31;3583397;40;20088;-65
2022/08/17 07:23:20;;;;;;;19.08;17.35;;;;;;;22.80;66.39;100739.34;3584101;40;20096;-64
2022/08/17 07:25:47;;;;;;;19.48;17.35;;;;;;;22.83;66.46;100739.00;3588013;40;20050;-64
2022/08/17 07:28:21;;;;;;;17.85;15.95;;;;;;;22.83;66.34;100748.06;3584171;39;20568;-64
2022/08/17 07:30:53;;;;;;;19.38;17.45;;;;;;;22.85;67.12;100743.28;3585313;40;20415;-64
2022/08/17 07:33:25;;;;;;;17.17;15.57;;;;;;;22.87;66.47;100752.19;3585556;40;20424;-64
2022/08/17 07:35:52;;;;;;;19.38;17.48;;;;;;;22.93;66.27;100753.38;3583611;40;20048;-64
2022/08/17 07:38:27;;;;;;;19.08;17.25;;;;;;;22.95;65.93;100756.78;3587846;40;20113;-64
2022/08/17 07:41:02;;;;;;;19.20;17.23;;;;;;;22.97;66.56;100762.13;3587306;40;20052;-64
2022/08/17 07:43:50;;;;;;;19.40;16.80;;;;;;;22.97;66.36;100765.72;3586895;39;20122;-64
2022/08/17 07:49:02;;;;;;;17.23;15.52;;;;;;;23.10;66.26;100767.88;3587142;40;20146;-65
2022/08/17 07:51:32;;;;;;;17.42;15.82;;;;;;;23.17;65.87;100757.91;3586723;39;20064;-64
2022/08/17 07:54:25;;;;;;;18.25;16.33;;;;;;;23.27;65.14;100769.50;3587456;40;20637;-65
2022/08/17 07:57:11;;;;;;;17.27;15.15;;;;;;;23.30;65.60;100771.03;3588150;40;20302;-65
2022/08/17 07:59:58;;;;;;;18.00;16.23;;;;;;;23.37;65.16;100764.69;3587123;40;20379;-65
2022/08/17 08:02:42;;;;;;;18.15;16.23;;;;;;;23.43;64.98;100773.19;3586483;40;20325;-64
2022/08/17 08:05:25;;;;;;;17.30;15.70;;;;;;;23.49;64.20;100765.09;3584087;40;20056;-64
2022/08/17 08:08:21;;;;;;;18.08;16.38;;;;;;;23.53;63.83;100771.06;3587428;40;20059;-64
2022/08/17 08:11:08;;;;;;;17.38;15.45;;;;;;;23.52;63.66;100766.63;3587826;40;20158;-65
2022/08/17 08:13:41;;;;;;;17.02;15.43;;;;;;;23.58;63.49;100774.16;3587839;40;20055;-65
2022/08/17 08:16:30;;;;;;;18.33;16.47;;;;;;;23.65;63.45;100777.88;3589799;40;20295;-65
2022/08/17 08:19:00;;;;;;;18.73;16.83;;;;;;;23.70;63.05;100774.63;3590779;40;20258;-65
2022/08/17 08:21:29;;;;;;;18.40;16.50;;;;;;;23.69;63.09;100773.78;3586930;39;20068;-64
2022/08/17 08:24:20;;;;;;;18.33;16.45;;;;;;;23.71;63.64;100771.69;3584560;40;20053;-65
2022/08/17 08:27:06;;;;;;;18.40;16.55;;;;;;;23.74;63.32;100763.09;3587087;40;20067;-64
2022/08/17 08:29:59;;;;;;;18.58;16.88;;;;;;;23.65;63.22;100747.66;3589159;39;20414;-64
2022/08/17 08:32:47;;;;;;;19.57;17.63;;;;;;;23.67;63.84;100744.75;3588147;40;20053;-65
2022/08/17 08:35:47;;;;;;;18.63;16.65;;;;;;;23.69;63.71;100757.31;3586662;40;20106;-64
2022/08/17 08:38:43;;;;;;;20.35;17.27;;;;;;;23.73;63.10;100761.38;3587933;40;20048;-64
2022/08/17 08:42:01;;;;;;;19.17;17.27;;;;;;;23.75;62.94;100766.69;3587859;40;20050;-64
2022/08/17 08:44:28;;;;;;;19.80;17.70;;;;;;;23.78;62.36;100769.91;3585546;40;20067;-65
2022/08/17 08:47:44;;;;;;;19.27;17.30;;;;;;;23.82;63.21;100779.50;3585382;40;20105;-65
2022/08/17 08:50:58;;;;;;;19.33;17.45;;;;;;;23.80;62.75;100792.56;3586832;40;20054;-65
2022/08/17 08:54:10;;;;;;;19.60;17.77;;;;;;;23.92;62.87;100800.38;3588123;40;20330;-64
2022/08/17 08:56:52;;;;;;;20.23;17.67;;;;;;;23.94;63.19;100803.78;3588214;40;20056;-65
2022/08/17 08:59:47;;;;;;;20.88;18.73;;;;;;;23.98;62.14;100788.66;3588679;40;20044;-64
2022/08/17 09:02:33;;;;;;;20.27;18.25;;;;;;;24.05;62.42;100792.38;3584414;40;20326;-65
2022/08/17 09:05:30;;;;;;;21.10;18.88;;;;;;;24.10;62.03;100795.41;3589689;40;20251;-64
2022/08/17 09:08:43;;;;;;;22.08;19.85;;;;;;;24.04;62.14;100787.91;3589414;40;20126;-65
2022/08/17 09:11:11;;;;;;;20.98;18.83;;;;;;;24.03;62.87;100794.44;3588032;40;20055;-65
2022/08/17 09:14:10;;;;;;;21.63;19.50;;;;;;;24.04;62.82;100793.41;3589079;40;20286;-65
2022/08/17 09:17:11;;;;;;;20.55;18.38;;;;;;;24.00;62.61;100800.31;3589334;40;20067;-64
2022/08/17 09:20:10;;;;;;;21.42;19.27;;;;;;;24.01;61.78;100796.53;3586849;40;20404;-65
2022/08/17 09:22:49;;;;;;;21.42;19.10;;;;;;;23.98;62.94;100799.66;3583184;40;20166;-64
2022/08/17 09:25:27;;;;;;;21.25;18.88;;;;;;;23.98;62.80;100803.25;3586775;39;20091;-65
2022/08/17 09:28:05;;;;;;;20.58;18.55;;;;;;;23.98;62.58;100803.25;3588620;40;20048;-65
2022/08/17 09:30:44;;;;;;;22.20;20.00;;;;;;;23.96;63.03;100810.81;3588583;39;20052;-64
2022/08/17 09:33:21;;;;;;;22.00;19.90;;;;;;;23.91;63.23;100823.34;3589481;39;20059;-64
2022/08/17 09:36:00;;;;;;;22.33;19.98;;;;;;;23.92;64.55;100833.34;3587338;40;20055;-63
2022/08/17 09:39:07;;;;;;;22.67;20.40;;;;;;;23.91;65.51;100848.94;3588182;40;20064;-64
2022/08/17 09:41:57;;;;;;;20.30;18.33;;;;;;;23.83;65.58;100852.59;3588299;40;20432;-64
2022/08/17 09:44:51;;;;;;;21.27;19.10;;;;;;;23.68;65.43;100873.56;3584681;40;20064;-64
2022/08/17 09:47:45;;;;;;;21.42;19.42;;;;;;;23.49;66.30;100887.72;3584143;40;20053;-63
2022/08/17 09:50:29;;;;;;;23.58;21.23;;;;;;;23.24;67.92;100867.75;3584685;40;20120;-64
2022/08/17 09:52:57;;;;;;;22.95;20.67;;;;;;;23.34;68.06;100896.72;3590205;40;20306;-65
2022/08/17 09:55:56;;;;;;;24.13;21.70;;;;;;;23.29;68.78;100895.53;3588459;39;20652;-64
2022/08/17 09:58:39;;;;;;;24.35;21.80;;;;;;;23.19;70.39;100876.53;3585389;40;20778;-63
2022/08/17 10:01:35;;;;;;;24.03;21.53;;;;;;;23.08;71.38;100863.16;3586319;40;20475;-65
2022/08/17 10:04:31;;;;;;;25.85;23.25;;;;;;;22.95;72.93;100847.28;3587516;40;20052;-62
2022/08/17 10:07:05;;;;;;;25.58;22.95;;;;;;;22.86;73.04;100862.00;3591339;40;20060;-62
2022/08/17 10:09:43;;;;;;;26.10;23.58;;;;;;;22.78;74.22;100865.59;3587792;40;20084;-62
2022/08/17 10:12:26;;;;;;;26.10;23.70;;;;;;;22.78;74.94;100872.97;3588514;39;20460;-62
2022/08/17 10:15:22;;;;;;;27.95;25.17;;;;;;;22.70;75.76;100869.19;3589369;40;20044;-62
2022/08/17 10:18:14;;;;;;;28.27;25.40;;;;;;;22.64;76.54;100866.28;3587367;40;20420;-62
2022/08/17 10:26:54;;;;;;;29.92;27.02;;;;;;;22.30;78.57;100842.69;3588971;40;20118;-62
2022/08/17 10:29:47;;;;;;;31.13;28.02;;;;;;;22.29;79.27;100873.84;3587618;39;20405;-61
2022/08/17 10:32:31;;;;;;;30.30;27.50;;;;;;;22.20;79.61;100866.63;3587287;40;20047;-62
2022/08/17 10:35:24;;;;;;;34.55;30.88;;;;;;;22.19;81.42;100865.78;3587756;40;20059;-61
2022/08/17 10:38:11;;;;;;;36.30;32.58;;;;;;;22.21;82.24;100865.63;3588455;40;20051;-62
2022/08/17 10:41:25;;;;;;;33.75;30.25;;;;;;;22.24;82.33;100852.44;3588039;40;20064;-61
2022/08/17 10:44:23;;;;;;;33.42;30.10;;;;;;;22.21;81.44;100830.03;3586113;40;20045;-62
2022/08/17 10:47:13;;;;;;;32.95;29.73;;;;;;;22.32;80.76;100837.88;3588078;40;20141;-62
2022/08/17 10:49:52;;;;;;;32.00;28.80;;;;;;;22.30;80.87;100834.47;3586677;40;20048;-62
2022/08/17 10:52:29;;;;;;;31.92;28.75;;;;;;;22.27;80.66;100826.59;3585517;39;20091;-62
2022/08/17 10:54:55;;;;;;;32.45;29.23;;;;;;;22.21;80.76;100816.34;3585300;40;20052;-61
2022/08/17 10:57:32;;;;;;;33.65;30.58;;;;;;;22.19;81.49;100818.38;3585295;39;20071;-60
2022/08/17 11:00:15;;;;;;;34.22;30.73;;;;;;;22.12;81.18;100818.19;3586159;39;20048;-62
2022/08/17 11:02:56;;;;;;;35.00;30.52;;;;;;;22.16;81.75;100819.56;3584369;40;20441;-61
2022/08/17 11:05:58;;;;;;;32.40;29.02;;;;;;;22.16;81.28;100818.72;3585471;40;20068;-61
2022/08/17 11:08:37;;;;;;;34.05;30.52;;;;;;;22.13;81.77;100824.50;3585775;40;20291;-61
2022/08/17 11:11:44;;;;;;;30.85;28.00;;;;;;;22.10;81.02;100827.56;3587028;40;20056;-62
2022/08/17 11:14:38;;;;;;;32.25;29.05;;;;;;;22.08;81.33;100824.19;3588128;40;20364;-61
2022/08/17 11:17:28;;;;;;;32.67;29.48;;;;;;;22.09;81.80;100829.47;3588720;39;20040;-61
2022/08/17 11:20:13;;;;;;;31.98;28.90;;;;;;;22.07;81.41;100836.13;3586811;39;20071;-62
2022/08/17 11:23:27;;;;;;;32.30;29.13;;;;;;;22.09;81.26;100842.31;3585570;40;20306;-61
2022/08/17 11:26:07;;;;;;;;;;;;;;;22.02;80.93;100845.72;3585099;40;20044;-64
2022/08/17 11:28:47;;;;;;;29.58;26.77;;;;;;;21.98;80.23;100852.56;3588483;40;20002;-64
2022/08/17 11:31:39;;;;;;;30.63;27.83;;;;;;;21.98;80.63;100871.72;3587605;40;20047;-64
2022/08/17 11:34:17;;;;;;;29.67;26.92;;;;;;;21.99;80.11;100873.44;3592906;39;20050;-64
2022/08/17 11:37:31;;;;;;;30.05;27.27;;;;;;;22.06;80.65;100878.22;3588987;40;20390;-65
2022/08/17 11:40:41;;;;;;;29.42;26.42;;;;;;;22.06;81.79;100878.22;3588209;40;20070;-69
2022/08/17 11:43:30;;;;;;;32.47;29.00;;;;;;;22.05;82.14;100877.38;3586354;40;20075;-62
2022/08/17 11:52:48;;;;;;;31.77;28.75;;;;;;;22.16;82.63;100888.03;3588593;40;20088;-62
2022/08/17 11:55:33;;;;;;;32.13;28.85;;;;;;;22.14;81.91;100900.16;3589629;39;20060;-61
2022/08/17 11:58:38;;;;;;;32.05;28.95;;;;;;;22.12;82.26;100904.94;3590135;40;20097;-60
2022/08/17 12:01:30;;;;;;;32.30;29.05;;;;;;;22.06;82.47;100913.81;3591833;39;20052;-60
2022/08/17 12:04:28;;;;;;;34.20;30.90;;;;;;;22.07;83.30;100915.53;3585518;40;20052;-61
2022/08/17 12:07:13;;;;;;;32.65;29.63;;;;;;;22.07;82.72;100913.63;3587868;40;20051;-61
2022/08/17 12:09:49;;;;;;;33.97;30.60;;;;;;;22.08;82.57;100914.53;3587685;40;20551;-62
2022/08/17 12:12:34;;;;;;;32.85;29.80;;;;;;;22.03;81.76;100918.59;3587919;40;20126;-62
2022/08/17 12:15:06;;;;;;;34.08;30.60;;;;;;;22.05;82.77;100914.84;3588178;39;20371;-61
2022/08/17 12:17:34;;;;;;;35.70;32.28;;;;;;;22.05;84.02;100928.53;3588130;40;20048;-61
2022/08/17 12:20:41;;;;;;;36.42;32.78;;;;;;;22.04;84.21;100930.41;3588083;40;20044;-61
2022/08/17 12:23:25;;;;;;;37.22;33.47;;;;;;;22.06;84.12;100927.50;3588791;40;20063;-61
2022/08/17 12:26:18;;;;;;;38.65;35.08;;;;;;;22.10;85.32;100926.16;3589273;40;20053;-61
2022/08/17 12:28:58;;;;;;;38.10;34.50;;;;;;;22.05;83.73;100923.91;3586721;40;20045;-61
2022/08/17 12:31:43;;;;;;;36.65;33.17;;;;;;;22.02;82.56;100927.84;3585747;40;20074;-61